sensor_id;sensor_type;location;lat;lon;timestamp;P1;durP1;ratioP1;P2;durP2;ratioP2
10333;SDS011;5212;47.892;16.406;2023-04-23T00:43:43;6.27;;;3.87;;
10333;SDS011;5212;47.892;16.406;2023-04-23T01:04:18;8.73;;;4.43;;
10333;SDS011;5212;47.892;16.406;2023-04-23T01:11:55;4.90;;;4.30;;
10333;SDS011;5212;47.892;16.406;2023-04-23T01:14:22;5.13;;;4.10;;
10333;SDS011;5212;47.892;16.406;2023-04-23T01:24:24;7.00;;;4.80;;
10333;SDS011;5212;47.892;16.406;2023-04-23T01:34:33;6.17;;;4.30;;
10333;SDS011;5212;47.892;16.406;2023-04-23T01:37:00;5.37;;;4.40;;
10333;SDS011;5212;47.892;16.406;2023-04-23T01:39:27;4.73;;;3.80;;
10333;SDS011;5212;47.892;16.406;2023-04-23T01:41:54;5.73;;;4.47;;
10333;SDS011;5212;47.892;16.406;2023-04-23T01:44:21;6.40;;;4.37;;
10333;SDS011;5212;47.892;16.406;2023-04-23T01:49:21;4.70;;;4.20;;
10333;SDS011;5212;47.892;16.406;2023-04-23T01:51:48;8.70;;;4.70;;
10333;SDS011;5212;47.892;16.406;2023-04-23T01:56:45;5.40;;;4.67;;
10333;SDS011;5212;47.892;16.406;2023-04-23T02:04:11;6.33;;;4.60;;
10333;SDS011;5212;47.892;16.406;2023-04-23T02:06:38;6.77;;;4.50;;
10333;SDS011;5212;47.892;16.406;2023-04-23T02:09:06;5.13;;;4.63;;
10333;SDS011;5212;47.892;16.406;2023-04-23T02:14:09;5.73;;;4.60;;
10333;SDS011;5212;47.892;16.406;2023-04-23T02:16:36;7.73;;;4.70;;
10333;SDS011;5212;47.892;16.406;2023-04-23T02:26:44;7.60;;;4.50;;
10333;SDS011;5212;47.892;16.406;2023-04-23T02:34:23;8.03;;;5.27;;
10333;SDS011;5212;47.892;16.406;2023-04-23T02:42:00;6.33;;;4.50;;
10333;SDS011;5212;47.892;16.406;2023-04-23T02:47:01;5.57;;;4.30;;
10333;SDS011;5212;47.892;16.406;2023-04-23T02:49:29;5.30;;;4.30;;
10333;SDS011;5212;47.892;16.406;2023-04-23T02:54:29;6.00;;;4.47;;
10333;SDS011;5212;47.892;16.406;2023-04-23T02:56:56;6.27;;;4.47;;
10333;SDS011;5212;47.892;16.406;2023-04-23T03:04:34;5.60;;;4.03;;
10333;SDS011;5212;47.892;16.406;2023-04-23T03:35:21;7.83;;;5.73;;
10333;SDS011;5212;47.892;16.406;2023-04-23T03:37:48;11.77;;;7.23;;
10333;SDS011;5212;47.892;16.406;2023-04-23T03:48:00;7.83;;;6.83;;
10333;SDS011;5212;47.892;16.406;2023-04-23T03:53:03;7.90;;;6.80;;
10333;SDS011;5212;47.892;16.406;2023-04-23T03:55:29;7.20;;;6.37;;
10333;SDS011;5212;47.892;16.406;2023-04-23T03:57:57;8.10;;;6.67;;
10333;SDS011;5212;47.892;16.406;2023-04-23T04:08:12;8.93;;;6.40;;
10333;SDS011;5212;47.892;16.406;2023-04-23T04:10:38;7.30;;;6.60;;
10333;SDS011;5212;47.892;16.406;2023-04-23T04:13:05;8.27;;;7.20;;
10333;SDS011;5212;47.892;16.406;2023-04-23T04:15:32;9.03;;;8.07;;
10333;SDS011;5212;47.892;16.406;2023-04-23T04:17:58;8.77;;;7.43;;
10333;SDS011;5212;47.892;16.406;2023-04-23T04:20:25;9.17;;;6.67;;
10333;SDS011;5212;47.892;16.406;2023-04-23T04:22:52;9.17;;;6.43;;
10333;SDS011;5212;47.892;16.406;2023-04-23T04:25:19;8.53;;;6.70;;
10333;SDS011;5212;47.892;16.406;2023-04-23T04:27:46;7.70;;;6.40;;
10333;SDS011;5212;47.892;16.406;2023-04-23T04:30:13;6.90;;;6.20;;
10333;SDS011;5212;47.892;16.406;2023-04-23T04:32:40;8.93;;;6.87;;
10333;SDS011;5212;47.892;16.406;2023-04-23T04:35:07;8.73;;;6.77;;
10333;SDS011;5212;47.892;16.406;2023-04-23T04:37:34;8.37;;;6.70;;
10333;SDS011;5212;47.892;16.406;2023-04-23T04:40:00;8.27;;;7.07;;
10333;SDS011;5212;47.892;16.406;2023-04-23T04:42:30;8.87;;;6.77;;
10333;SDS011;5212;47.892;16.406;2023-04-23T04:44:56;6.50;;;5.53;;
10333;SDS011;5212;47.892;16.406;2023-04-23T04:47:23;10.07;;;8.47;;
10333;SDS011;5212;47.892;16.406;2023-04-23T04:49:52;9.87;;;7.70;;
10333;SDS011;5212;47.892;16.406;2023-04-23T04:52:21;9.90;;;7.97;;
10333;SDS011;5212;47.892;16.406;2023-04-23T04:54:48;7.30;;;6.60;;
10333;SDS011;5212;47.892;16.406;2023-04-23T04:57:14;9.10;;;8.00;;
10333;SDS011;5212;47.892;16.406;2023-04-23T04:59:41;9.53;;;7.90;;
10333;SDS011;5212;47.892;16.406;2023-04-23T05:02:08;10.83;;;7.90;;
10333;SDS011;5212;47.892;16.406;2023-04-23T05:04:34;9.53;;;8.17;;
10333;SDS011;5212;47.892;16.406;2023-04-23T05:07:01;9.20;;;8.07;;
10333;SDS011;5212;47.892;16.406;2023-04-23T05:09:28;11.47;;;8.83;;
10333;SDS011;5212;47.892;16.406;2023-04-23T05:11:54;9.83;;;8.30;;
10333;SDS011;5212;47.892;16.406;2023-04-23T05:14:22;8.87;;;7.90;;
10333;SDS011;5212;47.892;16.406;2023-04-23T05:16:51;10.53;;;9.07;;
10333;SDS011;5212;47.892;16.406;2023-04-23T05:19:17;9.83;;;8.47;;
10333;SDS011;5212;47.892;16.406;2023-04-23T05:21:45;11.33;;;9.20;;
10333;SDS011;5212;47.892;16.406;2023-04-23T05:24:11;10.40;;;9.10;;
10333;SDS011;5212;47.892;16.406;2023-04-23T05:26:38;11.67;;;9.37;;
10333;SDS011;5212;47.892;16.406;2023-04-23T05:29:04;9.33;;;8.20;;
10333;SDS011;5212;47.892;16.406;2023-04-23T05:31:31;10.40;;;8.57;;
10333;SDS011;5212;47.892;16.406;2023-04-23T05:33:58;10.50;;;8.57;;
10333;SDS011;5212;47.892;16.406;2023-04-23T05:38:59;9.40;;;8.10;;
10333;SDS011;5212;47.892;16.406;2023-04-23T05:41:25;17.37;;;13.93;;
10333;SDS011;5212;47.892;16.406;2023-04-23T05:43:51;12.43;;;8.77;;
10333;SDS011;5212;47.892;16.406;2023-04-23T05:46:18;10.93;;;8.00;;
10333;SDS011;5212;47.892;16.406;2023-04-23T05:48:45;10.37;;;9.20;;
10333;SDS011;5212;47.892;16.406;2023-04-23T05:51:12;9.50;;;8.50;;
10333;SDS011;5212;47.892;16.406;2023-04-23T05:53:38;9.30;;;8.30;;
10333;SDS011;5212;47.892;16.406;2023-04-23T05:56:05;10.23;;;8.30;;
10333;SDS011;5212;47.892;16.406;2023-04-23T05:58:31;9.97;;;8.17;;
10333;SDS011;5212;47.892;16.406;2023-04-23T06:03:30;11.23;;;8.93;;
10333;SDS011;5212;47.892;16.406;2023-04-23T06:05:57;11.07;;;9.00;;
10333;SDS011;5212;47.892;16.406;2023-04-23T06:10:52;10.00;;;7.80;;
10333;SDS011;5212;47.892;16.406;2023-04-23T06:13:20;11.50;;;8.47;;
10333;SDS011;5212;47.892;16.406;2023-04-23T06:15:46;12.13;;;8.03;;
10333;SDS011;5212;47.892;16.406;2023-04-23T06:18:12;10.80;;;8.90;;
10333;SDS011;5212;47.892;16.406;2023-04-23T06:20:39;9.67;;;7.80;;
10333;SDS011;5212;47.892;16.406;2023-04-23T06:25:38;8.73;;;7.10;;
10333;SDS011;5212;47.892;16.406;2023-04-23T06:28:06;11.27;;;7.07;;
10333;SDS011;5212;47.892;16.406;2023-04-23T06:30:32;8.83;;;7.43;;
10333;SDS011;5212;47.892;16.406;2023-04-23T06:33:00;8.67;;;7.50;;
10333;SDS011;5212;47.892;16.406;2023-04-23T06:35:27;11.53;;;8.60;;
10333;SDS011;5212;47.892;16.406;2023-04-23T06:37:54;8.37;;;6.40;;
10333;SDS011;5212;47.892;16.406;2023-04-23T06:42:49;7.60;;;6.40;;
10333;SDS011;5212;47.892;16.406;2023-04-23T06:47:52;9.03;;;6.50;;
10333;SDS011;5212;47.892;16.406;2023-04-23T06:50:18;9.87;;;6.47;;
10333;SDS011;5212;47.892;16.406;2023-04-23T06:52:45;7.60;;;5.73;;
10333;SDS011;5212;47.892;16.406;2023-04-23T06:55:11;9.60;;;6.73;;
10333;SDS011;5212;47.892;16.406;2023-04-23T06:57:38;10.33;;;5.90;;
10333;SDS011;5212;47.892;16.406;2023-04-23T07:02:40;8.23;;;6.20;;
10333;SDS011;5212;47.892;16.406;2023-04-23T07:05:08;7.60;;;6.10;;
10333;SDS011;5212;47.892;16.406;2023-04-23T07:07:35;7.33;;;5.90;;
10333;SDS011;5212;47.892;16.406;2023-04-23T07:10:04;7.60;;;6.40;;
10333;SDS011;5212;47.892;16.406;2023-04-23T07:12:31;6.97;;;6.27;;
10333;SDS011;5212;47.892;16.406;2023-04-23T07:14:57;7.07;;;6.30;;
10333;SDS011;5212;47.892;16.406;2023-04-23T07:17:24;7.67;;;6.37;;
10333;SDS011;5212;47.892;16.406;2023-04-23T07:19:51;8.87;;;6.17;;
10333;SDS011;5212;47.892;16.406;2023-04-23T07:22:18;8.53;;;6.50;;
10333;SDS011;5212;47.892;16.406;2023-04-23T07:24:44;6.43;;;5.47;;
10333;SDS011;5212;47.892;16.406;2023-04-23T07:27:11;7.33;;;6.03;;
10333;SDS011;5212;47.892;16.406;2023-04-23T07:29:37;8.77;;;6.03;;
10333;SDS011;5212;47.892;16.406;2023-04-23T07:32:04;5.80;;;5.23;;
10333;SDS011;5212;47.892;16.406;2023-04-23T07:34:30;5.57;;;4.93;;
10333;SDS011;5212;47.892;16.406;2023-04-23T07:36:57;6.10;;;5.33;;
10333;SDS011;5212;47.892;16.406;2023-04-23T07:39:25;6.70;;;5.27;;
10333;SDS011;5212;47.892;16.406;2023-04-23T07:41:51;6.10;;;5.40;;
10333;SDS011;5212;47.892;16.406;2023-04-23T07:44:18;6.37;;;5.30;;
10333;SDS011;5212;47.892;16.406;2023-04-23T09:39:25;4.10;;;3.70;;
10333;SDS011;5212;47.892;16.406;2023-04-23T09:44:20;5.87;;;3.93;;
10333;SDS011;5212;47.892;16.406;2023-04-23T09:57:09;4.83;;;3.67;;
10333;SDS011;5212;47.892;16.406;2023-04-23T10:02:11;5.23;;;3.90;;
10333;SDS011;5212;47.892;16.406;2023-04-23T10:04:38;5.77;;;3.93;;
10333;SDS011;5212;47.892;16.406;2023-04-23T10:09:33;4.50;;;4.00;;
10333;SDS011;5212;47.892;16.406;2023-04-23T10:12:00;5.83;;;3.90;;
10333;SDS011;5212;47.892;16.406;2023-04-23T10:14:29;5.53;;;3.97;;
10333;SDS011;5212;47.892;16.406;2023-04-23T10:16:56;4.47;;;3.80;;
10333;SDS011;5212;47.892;16.406;2023-04-23T10:19:25;4.30;;;3.87;;
10333;SDS011;5212;47.892;16.406;2023-04-23T10:21:52;4.33;;;3.50;;
10333;SDS011;5212;47.892;16.406;2023-04-23T10:24:20;5.27;;;4.77;;
10333;SDS011;5212;47.892;16.406;2023-04-23T10:26:48;4.30;;;3.90;;
10333;SDS011;5212;47.892;16.406;2023-04-23T10:31:52;3.63;;;3.33;;
10333;SDS011;5212;47.892;16.406;2023-04-23T10:34:19;5.53;;;3.87;;
10333;SDS011;5212;47.892;16.406;2023-04-23T10:36:47;3.90;;;3.50;;
10333;SDS011;5212;47.892;16.406;2023-04-23T10:39:16;4.07;;;3.67;;
10333;SDS011;5212;47.892;16.406;2023-04-23T10:46:54;4.67;;;4.00;;
10333;SDS011;5212;47.892;16.406;2023-04-23T10:57:07;4.97;;;3.37;;
10333;SDS011;5212;47.892;16.406;2023-04-23T11:02:13;4.30;;;3.47;;
10333;SDS011;5212;47.892;16.406;2023-04-23T11:04:40;3.73;;;3.43;;
10333;SDS011;5212;47.892;16.406;2023-04-23T11:07:07;4.30;;;3.67;;
10333;SDS011;5212;47.892;16.406;2023-04-23T11:09:38;5.03;;;3.50;;
10333;SDS011;5212;47.892;16.406;2023-04-23T11:12:06;6.43;;;3.20;;
10333;SDS011;5212;47.892;16.406;2023-04-23T11:14:35;4.00;;;3.30;;
10333;SDS011;5212;47.892;16.406;2023-04-23T11:17:02;4.53;;;3.50;;
10333;SDS011;5212;47.892;16.406;2023-04-23T11:19:30;4.33;;;3.73;;
10333;SDS011;5212;47.892;16.406;2023-04-23T11:45:13;3.87;;;3.47;;
10333;SDS011;5212;47.892;16.406;2023-04-23T11:47:43;4.33;;;3.60;;
10333;SDS011;5212;47.892;16.406;2023-04-23T11:57:55;4.37;;;3.67;;
10333;SDS011;5212;47.892;16.406;2023-04-23T12:28:48;6.00;;;5.40;;
10333;SDS011;5212;47.892;16.406;2023-04-23T12:31:17;4.90;;;4.40;;
10333;SDS011;5212;47.892;16.406;2023-04-23T12:44:06;5.63;;;3.73;;
10333;SDS011;5212;47.892;16.406;2023-04-23T12:54:18;3.43;;;3.13;;
10333;SDS011;5212;47.892;16.406;2023-04-23T13:04:24;4.63;;;3.20;;
10333;SDS011;5212;47.892;16.406;2023-04-23T13:06:51;3.73;;;3.20;;
10333;SDS011;5212;47.892;16.406;2023-04-23T13:22:16;4.67;;;3.20;;
10333;SDS011;5212;47.892;16.406;2023-04-23T13:24:42;3.70;;;3.40;;
10333;SDS011;5212;47.892;16.406;2023-04-23T13:32:12;12.20;;;9.90;;
10333;SDS011;5212;47.892;16.406;2023-04-23T13:34:40;14.37;;;12.30;;
10333;SDS011;5212;47.892;16.406;2023-04-23T13:39:45;5.07;;;3.60;;
10333;SDS011;5212;47.892;16.406;2023-04-23T13:42:12;4.63;;;3.23;;
10333;SDS011;5212;47.892;16.406;2023-04-23T13:44:38;6.57;;;5.10;;
10333;SDS011;5212;47.892;16.406;2023-04-23T13:47:05;4.83;;;3.70;;
10333;SDS011;5212;47.892;16.406;2023-04-23T13:49:31;3.87;;;3.50;;
10333;SDS011;5212;47.892;16.406;2023-04-23T13:54:33;3.53;;;3.10;;
10333;SDS011;5212;47.892;16.406;2023-04-23T13:57:01;3.80;;;2.97;;
10333;SDS011;5212;47.892;16.406;2023-04-23T13:59:27;3.50;;;2.80;;
10333;SDS011;5212;47.892;16.406;2023-04-23T14:01:54;3.50;;;3.20;;
10333;SDS011;5212;47.892;16.406;2023-04-23T14:04:20;3.80;;;3.40;;
10333;SDS011;5212;47.892;16.406;2023-04-23T14:06:49;4.27;;;2.80;;
10333;SDS011;5212;47.892;16.406;2023-04-23T14:09:15;4.83;;;3.27;;
10333;SDS011;5212;47.892;16.406;2023-04-23T14:11:43;4.50;;;3.10;;
10333;SDS011;5212;47.892;16.406;2023-04-23T14:14:10;3.80;;;3.40;;
10333;SDS011;5212;47.892;16.406;2023-04-23T14:16:36;4.50;;;3.10;;
10333;SDS011;5212;47.892;16.406;2023-04-23T14:19:02;4.27;;;3.60;;
10333;SDS011;5212;47.892;16.406;2023-04-23T14:21:30;3.37;;;3.07;;
10333;SDS011;5212;47.892;16.406;2023-04-23T14:24:00;3.33;;;3.03;;
10333;SDS011;5212;47.892;16.406;2023-04-23T14:26:30;5.23;;;3.30;;
10333;SDS011;5212;47.892;16.406;2023-04-23T14:31:36;5.63;;;3.00;;
10333;SDS011;5212;47.892;16.406;2023-04-23T14:34:03;3.40;;;3.10;;
10333;SDS011;5212;47.892;16.406;2023-04-23T14:36:29;3.50;;;3.20;;
10333;SDS011;5212;47.892;16.406;2023-04-23T14:38:56;4.00;;;3.60;;
10333;SDS011;5212;47.892;16.406;2023-04-23T14:41:28;3.67;;;3.37;;
10333;SDS011;5212;47.892;16.406;2023-04-23T14:43:55;4.17;;;3.57;;
10333;SDS011;5212;47.892;16.406;2023-04-23T14:46:21;4.80;;;3.40;;
10333;SDS011;5212;47.892;16.406;2023-04-23T14:48:49;4.13;;;3.43;;
10333;SDS011;5212;47.892;16.406;2023-04-23T14:51:56;4.40;;;3.43;;
10333;SDS011;5212;47.892;16.406;2023-04-23T14:54:22;3.70;;;3.30;;
10333;SDS011;5212;47.892;16.406;2023-04-23T14:56:48;4.50;;;3.40;;
10333;SDS011;5212;47.892;16.406;2023-04-23T14:59:15;4.80;;;3.67;;
10333;SDS011;5212;47.892;16.406;2023-04-23T15:01:41;4.10;;;3.73;;
10333;SDS011;5212;47.892;16.406;2023-04-23T15:04:08;5.17;;;3.73;;
10333;SDS011;5212;47.892;16.406;2023-04-23T15:06:34;4.73;;;3.27;;
10333;SDS011;5212;47.892;16.406;2023-04-23T15:09:01;4.10;;;3.70;;
10333;SDS011;5212;47.892;16.406;2023-04-23T15:11:27;4.87;;;3.83;;
10333;SDS011;5212;47.892;16.406;2023-04-23T15:13:59;5.37;;;4.10;;
10333;SDS011;5212;47.892;16.406;2023-04-23T15:16:28;5.03;;;3.87;;
10333;SDS011;5212;47.892;16.406;2023-04-23T15:18:57;4.40;;;4.00;;
10333;SDS011;5212;47.892;16.406;2023-04-23T15:21:24;5.27;;;3.77;;
10333;SDS011;5212;47.892;16.406;2023-04-23T15:23:50;5.40;;;3.97;;
10333;SDS011;5212;47.892;16.406;2023-04-23T15:26:17;4.10;;;3.73;;
10333;SDS011;5212;47.892;16.406;2023-04-23T15:28:43;3.80;;;3.50;;
10333;SDS011;5212;47.892;16.406;2023-04-23T15:31:09;3.77;;;3.47;;
10333;SDS011;5212;47.892;16.406;2023-04-23T15:33:35;3.60;;;3.30;;
10333;SDS011;5212;47.892;16.406;2023-04-23T15:36:01;4.43;;;3.90;;
10333;SDS011;5212;47.892;16.406;2023-04-23T15:38:28;3.80;;;3.50;;
10333;SDS011;5212;47.892;16.406;2023-04-23T15:40:54;4.47;;;3.80;;
10333;SDS011;5212;47.892;16.406;2023-04-23T15:43:21;5.40;;;3.50;;
10333;SDS011;5212;47.892;16.406;2023-04-23T15:45:47;3.53;;;3.10;;
10333;SDS011;5212;47.892;16.406;2023-04-23T15:48:14;4.13;;;3.20;;
10333;SDS011;5212;47.892;16.406;2023-04-23T15:50:40;4.17;;;3.00;;
10333;SDS011;5212;47.892;16.406;2023-04-23T15:53:06;3.97;;;3.30;;
10333;SDS011;5212;47.892;16.406;2023-04-23T15:55:32;3.87;;;2.93;;
10333;SDS011;5212;47.892;16.406;2023-04-23T15:57:58;3.50;;;3.13;;
10333;SDS011;5212;47.892;16.406;2023-04-23T16:00:26;4.20;;;2.90;;
10333;SDS011;5212;47.892;16.406;2023-04-23T16:02:52;3.53;;;3.00;;
10333;SDS011;5212;47.892;16.406;2023-04-23T16:05:18;3.87;;;3.10;;
10333;SDS011;5212;47.892;16.406;2023-04-23T16:07:44;5.53;;;3.30;;
10333;SDS011;5212;47.892;16.406;2023-04-23T16:10:10;3.47;;;2.90;;
10333;SDS011;5212;47.892;16.406;2023-04-23T16:12:36;3.20;;;2.90;;
10333;SDS011;5212;47.892;16.406;2023-04-23T16:15:03;3.80;;;3.40;;
10333;SDS011;5212;47.892;16.406;2023-04-23T16:17:30;3.63;;;3.23;;
10333;SDS011;5212;47.892;16.406;2023-04-23T16:19:56;3.57;;;3.27;;
10333;SDS011;5212;47.892;16.406;2023-04-23T16:22:22;3.67;;;2.93;;
10333;SDS011;5212;47.892;16.406;2023-04-23T16:24:49;3.50;;;3.20;;
10333;SDS011;5212;47.892;16.406;2023-04-23T16:27:15;3.40;;;3.10;;
10333;SDS011;5212;47.892;16.406;2023-04-23T16:29:41;5.70;;;3.00;;
10333;SDS011;5212;47.892;16.406;2023-04-23T16:32:07;3.90;;;3.43;;
10333;SDS011;5212;47.892;16.406;2023-04-23T16:34:34;3.27;;;2.97;;
10333;SDS011;5212;47.892;16.406;2023-04-23T16:37:00;3.67;;;3.37;;
10333;SDS011;5212;47.892;16.406;2023-04-23T16:39:26;3.20;;;2.90;;
10333;SDS011;5212;47.892;16.406;2023-04-23T16:41:52;4.23;;;3.30;;
10333;SDS011;5212;47.892;16.406;2023-04-23T16:44:18;3.73;;;3.30;;
10333;SDS011;5212;47.892;16.406;2023-04-23T16:46:44;3.90;;;2.87;;
10333;SDS011;5212;47.892;16.406;2023-04-23T16:49:10;3.20;;;2.90;;
10333;SDS011;5212;47.892;16.406;2023-04-23T16:51:38;3.77;;;3.10;;
10333;SDS011;5212;47.892;16.406;2023-04-23T16:54:04;3.87;;;3.07;;
10333;SDS011;5212;47.892;16.406;2023-04-23T16:56:31;4.10;;;3.20;;
10333;SDS011;5212;47.892;16.406;2023-04-23T16:58:57;3.43;;;2.97;;
10333;SDS011;5212;47.892;16.406;2023-04-23T17:01:23;4.20;;;3.53;;
10333;SDS011;5212;47.892;16.406;2023-04-23T17:03:49;4.67;;;3.53;;
10333;SDS011;5212;47.892;16.406;2023-04-23T17:06:18;3.43;;;3.13;;
10333;SDS011;5212;47.892;16.406;2023-04-23T17:08:50;4.13;;;3.47;;
10333;SDS011;5212;47.892;16.406;2023-04-23T17:11:16;3.50;;;3.20;;
10333;SDS011;5212;47.892;16.406;2023-04-23T17:13:42;3.57;;;3.27;;
10333;SDS011;5212;47.892;16.406;2023-04-23T17:16:08;3.40;;;3.10;;
10333;SDS011;5212;47.892;16.406;2023-04-23T17:18:34;3.63;;;3.00;;
10333;SDS011;5212;47.892;16.406;2023-04-23T17:21:00;4.67;;;2.83;;
10333;SDS011;5212;47.892;16.406;2023-04-23T17:23:26;4.30;;;2.97;;
10333;SDS011;5212;47.892;16.406;2023-04-23T17:25:53;3.67;;;3.33;;
10333;SDS011;5212;47.892;16.406;2023-04-23T17:28:19;4.63;;;2.93;;
10333;SDS011;5212;47.892;16.406;2023-04-23T17:30:45;3.03;;;2.73;;
10333;SDS011;5212;47.892;16.406;2023-04-23T17:33:11;3.10;;;2.80;;
10333;SDS011;5212;47.892;16.406;2023-04-23T17:35:38;3.00;;;2.70;;
10333;SDS011;5212;47.892;16.406;2023-04-23T17:38:05;3.60;;;3.00;;
10333;SDS011;5212;47.892;16.406;2023-04-23T17:40:31;3.43;;;3.00;;
10333;SDS011;5212;47.892;16.406;2023-04-23T17:42:58;5.60;;;3.13;;
10333;SDS011;5212;47.892;16.406;2023-04-23T17:45:24;3.90;;;3.03;;
10333;SDS011;5212;47.892;16.406;2023-04-23T17:47:50;3.73;;;3.23;;
10333;SDS011;5212;47.892;16.406;2023-04-23T17:50:16;4.73;;;3.37;;
10333;SDS011;5212;47.892;16.406;2023-04-23T17:52:42;4.73;;;3.50;;
10333;SDS011;5212;47.892;16.406;2023-04-23T17:55:09;3.47;;;3.17;;
10333;SDS011;5212;47.892;16.406;2023-04-23T17:57:35;3.47;;;3.17;;
10333;SDS011;5212;47.892;16.406;2023-04-23T18:00:02;3.97;;;3.40;;
10333;SDS011;5212;47.892;16.406;2023-04-23T18:02:33;4.10;;;3.40;;
10333;SDS011;5212;47.892;16.406;2023-04-23T18:05:05;3.80;;;3.40;;
10333;SDS011;5212;47.892;16.406;2023-04-23T18:07:31;3.93;;;3.53;;
10333;SDS011;5212;47.892;16.406;2023-04-23T18:09:57;3.60;;;3.23;;
10333;SDS011;5212;47.892;16.406;2023-04-23T18:12:24;3.40;;;3.10;;
10333;SDS011;5212;47.892;16.406;2023-04-23T18:14:50;3.60;;;3.30;;
10333;SDS011;5212;47.892;16.406;2023-04-23T18:17:16;4.37;;;3.40;;
10333;SDS011;5212;47.892;16.406;2023-04-23T18:19:43;4.33;;;3.50;;
10333;SDS011;5212;47.892;16.406;2023-04-23T18:22:09;4.07;;;3.50;;
10333;SDS011;5212;47.892;16.406;2023-04-23T18:24:35;4.20;;;3.80;;
10333;SDS011;5212;47.892;16.406;2023-04-23T18:27:01;3.33;;;3.03;;
10333;SDS011;5212;47.892;16.406;2023-04-23T18:29:27;4.20;;;3.80;;
10333;SDS011;5212;47.892;16.406;2023-04-23T18:31:53;4.73;;;3.50;;
10333;SDS011;5212;47.892;16.406;2023-04-23T18:34:20;4.43;;;3.47;;
10333;SDS011;5212;47.892;16.406;2023-04-23T18:36:47;4.00;;;3.30;;
10333;SDS011;5212;47.892;16.406;2023-04-23T18:39:13;3.53;;;3.23;;
10333;SDS011;5212;47.892;16.406;2023-04-23T18:41:39;4.07;;;3.50;;
10333;SDS011;5212;47.892;16.406;2023-04-23T18:44:05;3.83;;;3.40;;
10333;SDS011;5212;47.892;16.406;2023-04-23T18:46:31;4.20;;;3.53;;
10333;SDS011;5212;47.892;16.406;2023-04-23T18:48:58;4.20;;;3.80;;
10333;SDS011;5212;47.892;16.406;2023-04-23T18:51:29;3.67;;;3.37;;
10333;SDS011;5212;47.892;16.406;2023-04-23T18:53:57;4.77;;;3.60;;
10333;SDS011;5212;47.892;16.406;2023-04-23T18:56:25;4.00;;;3.50;;
10333;SDS011;5212;47.892;16.406;2023-04-23T18:58:51;3.93;;;3.53;;
10333;SDS011;5212;47.892;16.406;2023-04-23T19:01:17;4.40;;;4.00;;
10333;SDS011;5212;47.892;16.406;2023-04-23T19:03:44;3.70;;;3.40;;
10333;SDS011;5212;47.892;16.406;2023-04-23T19:06:10;3.80;;;3.50;;
10333;SDS011;5212;47.892;16.406;2023-04-23T19:08:37;4.10;;;3.70;;
10333;SDS011;5212;47.892;16.406;2023-04-23T19:11:03;4.10;;;3.40;;
10333;SDS011;5212;47.892;16.406;2023-04-23T19:13:30;4.67;;;3.50;;
10333;SDS011;5212;47.892;16.406;2023-04-23T19:15:56;3.83;;;3.33;;
10333;SDS011;5212;47.892;16.406;2023-04-23T19:18:22;3.80;;;3.40;;
10333;SDS011;5212;47.892;16.406;2023-04-23T19:20:48;4.27;;;3.63;;
10333;SDS011;5212;47.892;16.406;2023-04-23T19:23:14;4.67;;;3.53;;
10333;SDS011;5212;47.892;16.406;2023-04-23T19:25:41;4.00;;;3.57;;
10333;SDS011;5212;47.892;16.406;2023-04-23T19:28:07;4.23;;;3.83;;
10333;SDS011;5212;47.892;16.406;2023-04-23T19:30:33;4.43;;;3.80;;
10333;SDS011;5212;47.892;16.406;2023-04-23T19:32:59;3.93;;;3.40;;
10333;SDS011;5212;47.892;16.406;2023-04-23T19:35:25;8.07;;;4.10;;
10333;SDS011;5212;47.892;16.406;2023-04-23T19:37:51;4.17;;;3.70;;
10333;SDS011;5212;47.892;16.406;2023-04-23T19:40:17;4.00;;;3.60;;
10333;SDS011;5212;47.892;16.406;2023-04-23T19:42:44;3.83;;;3.53;;
10333;SDS011;5212;47.892;16.406;2023-04-23T19:45:10;4.30;;;3.70;;
10333;SDS011;5212;47.892;16.406;2023-04-23T19:47:36;6.33;;;3.70;;
10333;SDS011;5212;47.892;16.406;2023-04-23T19:50:04;4.00;;;3.60;;
10333;SDS011;5212;47.892;16.406;2023-04-23T19:52:31;4.17;;;3.77;;
10333;SDS011;5212;47.892;16.406;2023-04-23T19:54:57;5.27;;;4.77;;
10333;SDS011;5212;47.892;16.406;2023-04-23T19:57:23;5.70;;;4.73;;
10333;SDS011;5212;47.892;16.406;2023-04-23T19:59:50;5.10;;;4.60;;
10333;SDS011;5212;47.892;16.406;2023-04-23T20:02:17;5.17;;;4.13;;
10333;SDS011;5212;47.892;16.406;2023-04-23T20:04:43;3.93;;;3.53;;
10333;SDS011;5212;47.892;16.406;2023-04-23T20:07:09;3.50;;;3.20;;
10333;SDS011;5212;47.892;16.406;2023-04-23T20:09:35;3.07;;;2.80;;
10333;SDS011;5212;47.892;16.406;2023-04-23T20:12:01;2.70;;;2.50;;
10333;SDS011;5212;47.892;16.406;2023-04-23T20:14:28;2.70;;;2.50;;
10333;SDS011;5212;47.892;16.406;2023-04-23T20:16:55;3.70;;;2.40;;
10333;SDS011;5212;47.892;16.406;2023-04-23T20:19:21;2.80;;;2.57;;
10333;SDS011;5212;47.892;16.406;2023-04-23T20:21:50;2.50;;;2.13;;
10333;SDS011;5212;47.892;16.406;2023-04-23T20:24:16;2.67;;;2.13;;
10333;SDS011;5212;47.892;16.406;2023-04-23T20:26:42;4.37;;;2.43;;
10333;SDS011;5212;47.892;16.406;2023-04-23T20:29:08;2.63;;;2.30;;
10333;SDS011;5212;47.892;16.406;2023-04-23T20:31:35;3.47;;;2.50;;
10333;SDS011;5212;47.892;16.406;2023-04-23T20:34:01;2.67;;;1.90;;
10333;SDS011;5212;47.892;16.406;2023-04-23T20:36:27;2.50;;;2.20;;
10333;SDS011;5212;47.892;16.406;2023-04-23T20:38:55;1.90;;;1.80;;
10333;SDS011;5212;47.892;16.406;2023-04-23T20:41:22;2.13;;;1.70;;
10333;SDS011;5212;47.892;16.406;2023-04-23T20:43:49;1.80;;;1.70;;
10333;SDS011;5212;47.892;16.406;2023-04-23T20:46:15;2.10;;;1.90;;
10333;SDS011;5212;47.892;16.406;2023-04-23T20:48:42;2.17;;;1.97;;
10333;SDS011;5212;47.892;16.406;2023-04-23T20:51:09;2.20;;;2.00;;
10333;SDS011;5212;47.892;16.406;2023-04-23T20:53:35;2.00;;;1.80;;
10333;SDS011;5212;47.892;16.406;2023-04-23T20:56:02;1.90;;;1.70;;
10333;SDS011;5212;47.892;16.406;2023-04-23T20:58:28;2.20;;;2.00;;
10333;SDS011;5212;47.892;16.406;2023-04-23T21:00:54;2.43;;;1.90;;
10333;SDS011;5212;47.892;16.406;2023-04-23T21:03:20;2.37;;;2.17;;
10333;SDS011;5212;47.892;16.406;2023-04-23T21:05:46;2.83;;;2.53;;
10333;SDS011;5212;47.892;16.406;2023-04-23T21:08:13;4.43;;;2.80;;
10333;SDS011;5212;47.892;16.406;2023-04-23T21:10:39;2.70;;;2.50;;
10333;SDS011;5212;47.892;16.406;2023-04-23T21:13:06;2.57;;;2.30;;
10333;SDS011;5212;47.892;16.406;2023-04-23T21:15:32;5.20;;;3.60;;
10333;SDS011;5212;47.892;16.406;2023-04-23T21:17:59;3.87;;;3.50;;
10333;SDS011;5212;47.892;16.406;2023-04-23T21:20:26;5.40;;;3.70;;
10333;SDS011;5212;47.892;16.406;2023-04-23T21:22:52;3.80;;;3.30;;
10333;SDS011;5212;47.892;16.406;2023-04-23T21:25:19;4.10;;;3.70;;
10333;SDS011;5212;47.892;16.406;2023-04-23T21:27:45;5.30;;;4.80;;
10333;SDS011;5212;47.892;16.406;2023-04-23T21:30:14;5.83;;;4.90;;
10333;SDS011;5212;47.892;16.406;2023-04-23T21:32:43;5.57;;;4.20;;
10333;SDS011;5212;47.892;16.406;2023-04-23T21:35:09;8.00;;;4.80;;
10333;SDS011;5212;47.892;16.406;2023-04-23T21:37:35;4.90;;;4.20;;
10333;SDS011;5212;47.892;16.406;2023-04-23T21:40:02;7.57;;;4.70;;
10333;SDS011;5212;47.892;16.406;2023-04-23T21:42:29;4.97;;;4.40;;
10333;SDS011;5212;47.892;16.406;2023-04-23T21:44:55;4.63;;;4.07;;
10333;SDS011;5212;47.892;16.406;2023-04-23T21:47:21;5.00;;;4.50;;
10333;SDS011;5212;47.892;16.406;2023-04-23T21:49:47;4.40;;;4.00;;
10333;SDS011;5212;47.892;16.406;2023-04-23T21:52:13;4.93;;;4.17;;
10333;SDS011;5212;47.892;16.406;2023-04-23T21:54:41;4.83;;;4.00;;
10333;SDS011;5212;47.892;16.406;2023-04-23T21:57:07;4.40;;;4.00;;
10333;SDS011;5212;47.892;16.406;2023-04-23T21:59:34;6.00;;;3.70;;
10333;SDS011;5212;47.892;16.406;2023-04-23T22:02:00;4.30;;;3.90;;
10333;SDS011;5212;47.892;16.406;2023-04-23T22:04:26;4.33;;;3.90;;
10333;SDS011;5212;47.892;16.406;2023-04-23T22:06:53;5.83;;;4.50;;
10333;SDS011;5212;47.892;16.406;2023-04-23T22:09:19;4.47;;;3.73;;